createdAt,value
2018-08-23T00:00:16.685Z,1009.88
2018-08-23T00:01:16.691Z,1009.83
2018-08-23T00:02:16.708Z,1009.88
2018-08-23T00:03:16.703Z,1009.85
2018-08-23T00:04:16.726Z,1009.84
2018-08-23T00:05:16.717Z,1009.81
2018-08-23T00:06:16.724Z,1009.78
2018-08-23T00:07:16.732Z,1009.77
2018-08-23T00:08:16.736Z,1009.74
2018-08-23T00:09:16.748Z,1009.78
2018-08-23T00:10:16.752Z,1009.74
2018-08-23T00:11:16.749Z,1009.74
2018-08-23T00:12:16.769Z,1009.74
2018-08-23T00:13:16.765Z,1009.77
2018-08-23T00:14:16.772Z,1009.73
2018-08-23T00:15:16.774Z,1009.77
2018-08-23T00:16:16.806Z,1009.76
2018-08-23T00:17:16.787Z,1009.72
2018-08-23T00:18:16.788Z,1009.72
2018-08-23T00:19:16.808Z,1009.74
2018-08-23T00:20:16.797Z,1009.72
2018-08-23T00:21:16.807Z,1009.72
2018-08-23T00:22:16.812Z,1009.72
2018-08-23T00:23:16.818Z,1009.73
2018-08-23T00:24:16.822Z,1009.70
2018-08-23T00:25:16.827Z,1009.68
2018-08-23T00:26:16.831Z,1009.69
2018-08-23T00:27:16.877Z,1009.66
2018-08-23T00:28:16.878Z,1009.66
2018-08-23T00:29:16.847Z,1009.67
2018-08-23T00:30:16.859Z,1009.65
2018-08-23T00:31:16.869Z,1009.64
2018-08-23T00:32:16.864Z,1009.60
2018-08-23T00:33:16.874Z,1009.61
2018-08-23T00:34:16.877Z,1009.56
2018-08-23T00:35:16.881Z,1009.56
2018-08-23T00:36:16.893Z,1009.55
2018-08-23T00:37:16.899Z,1009.54
2018-08-23T00:38:16.897Z,1009.56
2018-08-23T00:39:16.905Z,1009.55
2018-08-23T00:40:16.912Z,1009.56
2018-08-23T00:41:16.921Z,1009.54
2018-08-23T00:42:16.919Z,1009.52
2018-08-23T00:43:16.929Z,1009.54
2018-08-23T00:44:16.931Z,1009.54
2018-08-23T00:45:16.940Z,1009.54
2018-08-23T00:46:16.947Z,1009.51
2018-08-23T00:47:16.959Z,1009.52
2018-08-23T00:48:16.959Z,1009.48
2018-08-23T00:49:16.960Z,1009.47
2018-08-23T00:50:16.967Z,1009.49
2018-08-23T00:51:16.971Z,1009.48
2018-08-23T00:52:16.977Z,1009.48
2018-08-23T00:53:16.979Z,1009.51
2018-08-23T00:54:17.064Z,1009.46
2018-08-23T00:55:16.994Z,1009.49
2018-08-23T00:56:16.997Z,1009.50
2018-08-23T00:57:17.002Z,1009.53
2018-08-23T00:58:17.009Z,1009.46
2018-08-23T00:59:17.017Z,1009.45
2018-08-23T01:00:17.019Z,1009.45
2018-08-23T01:01:17.021Z,1009.45
2018-08-23T01:02:17.029Z,1009.43
2018-08-23T01:03:17.028Z,1009.43
2018-08-23T01:04:17.039Z,1009.41
2018-08-23T01:05:17.045Z,1009.41
2018-08-23T01:06:17.048Z,1009.38
2018-08-23T01:07:17.056Z,1009.39
2018-08-23T01:08:17.057Z,1009.39
2018-08-23T01:09:17.067Z,1009.39
2018-08-23T01:10:17.071Z,1009.35
2018-08-23T01:11:17.079Z,1009.37
2018-08-23T01:12:17.083Z,1009.34
2018-08-23T01:13:17.086Z,1009.38
2018-08-23T01:14:17.095Z,1009.34
2018-08-23T01:15:17.094Z,1009.33
2018-08-23T01:16:17.105Z,1009.32
2018-08-23T01:17:17.112Z,1009.33
2018-08-23T01:18:17.116Z,1009.33
2018-08-23T01:19:17.118Z,1009.34
2018-08-23T01:20:17.120Z,1009.32
2018-08-23T01:21:17.131Z,1009.29
2018-08-23T01:22:17.137Z,1009.30
2018-08-23T01:23:17.138Z,1009.25
2018-08-23T01:24:17.144Z,1009.28
2018-08-23T01:25:17.150Z,1009.32
2018-08-23T01:26:17.154Z,1009.28
2018-08-23T01:27:17.161Z,1009.28
2018-08-23T01:28:17.161Z,1009.31
2018-08-23T01:29:17.165Z,1009.26
2018-08-23T01:30:17.170Z,1009.26
2018-08-23T01:31:17.181Z,1009.25
2018-08-23T01:32:17.180Z,1009.25
2018-08-23T01:33:17.194Z,1009.26
2018-08-23T01:34:17.191Z,1009.26
2018-08-23T01:35:17.201Z,1009.26
2018-08-23T01:36:17.207Z,1009.25
2018-08-23T01:37:17.205Z,1009.23
2018-08-23T01:38:17.217Z,1009.21
2018-08-23T01:39:17.220Z,1009.23
2018-08-23T01:40:17.221Z,1009.20
2018-08-23T01:41:17.233Z,1009.17
2018-08-23T01:42:17.229Z,1009.20
2018-08-23T01:43:17.238Z,1009.16
2018-08-23T01:44:17.246Z,1009.18
2018-08-23T01:45:17.250Z,1009.18
2018-08-23T01:46:17.258Z,1009.17
2018-08-23T01:47:17.261Z,1009.18
2018-08-23T01:48:17.270Z,1009.20
2018-08-23T01:49:17.267Z,1009.20
2018-08-23T01:50:17.276Z,1009.20
2018-08-23T01:51:17.283Z,1009.17
2018-08-23T01:52:17.283Z,1009.16
2018-08-23T01:53:17.292Z,1009.13
2018-08-23T01:54:17.293Z,1009.14
2018-08-23T01:55:17.302Z,1009.10
2018-08-23T01:56:17.303Z,1009.13
2018-08-23T01:57:17.308Z,1009.14
2018-08-23T01:58:17.318Z,1009.11
2018-08-23T01:59:17.320Z,1009.11
2018-08-23T02:00:17.327Z,1009.09
2018-08-23T02:01:17.332Z,1009.08
2018-08-23T02:02:17.330Z,1009.07
2018-08-23T02:03:17.342Z,1009.07
2018-08-23T02:04:17.339Z,1009.03
2018-08-23T02:05:17.352Z,1009.00
2018-08-23T02:06:17.350Z,1009.01
2018-08-23T02:07:17.363Z,1008.99
2018-08-23T02:08:17.359Z,1009.01
2018-08-23T02:09:17.364Z,1009.00
2018-08-23T02:10:17.377Z,1008.99
2018-08-23T02:11:17.375Z,1008.96
2018-08-23T02:12:17.385Z,1008.96
2018-08-23T02:13:17.387Z,1008.93
2018-08-23T02:14:17.388Z,1008.94
2018-08-23T02:15:17.401Z,1008.93
2018-08-23T02:16:18.709Z,1008.92
2018-08-23T02:17:17.407Z,1008.92
2018-08-23T02:18:17.410Z,1008.91
2018-08-23T02:19:17.413Z,1008.94
2018-08-23T02:20:17.422Z,1008.91
2018-08-23T02:21:17.427Z,1008.91
2018-08-23T02:22:17.431Z,1008.91
2018-08-23T02:23:17.444Z,1008.89
2018-08-23T02:24:17.438Z,1008.86
2018-08-23T02:25:17.443Z,1008.84
2018-08-23T02:26:17.451Z,1008.84
2018-08-23T02:27:17.462Z,1008.83
2018-08-23T02:28:17.459Z,1008.80
2018-08-23T02:29:17.464Z,1008.79
2018-08-23T02:30:17.480Z,1008.78
2018-08-23T02:31:17.475Z,1008.79
2018-08-23T02:32:17.481Z,1008.83
2018-08-23T02:33:17.495Z,1008.80
2018-08-23T02:34:17.493Z,1008.85
2018-08-23T02:35:17.493Z,1008.85
2018-08-23T02:36:17.496Z,1008.79
2018-08-23T02:37:17.516Z,1008.76
2018-08-23T02:38:17.589Z,1008.79
2018-08-23T02:39:17.516Z,1008.80
2018-08-23T02:40:17.513Z,1008.75
2018-08-23T02:41:17.520Z,1008.75
2018-08-23T02:42:17.532Z,1008.76
2018-08-23T02:43:17.530Z,1008.74
2018-08-23T02:44:17.548Z,1008.75
2018-08-23T02:45:17.550Z,1008.73
2018-08-23T02:46:17.547Z,1008.68
2018-08-23T02:47:17.554Z,1008.70
2018-08-23T02:48:17.553Z,1008.70
2018-08-23T02:49:17.558Z,1008.68
2018-08-23T02:50:17.567Z,1008.69
2018-08-23T02:51:17.569Z,1008.66
2018-08-23T02:52:17.576Z,1008.67
2018-08-23T02:53:17.571Z,1008.66
2018-08-23T02:54:17.585Z,1008.65
2018-08-23T02:55:17.588Z,1008.69
2018-08-23T02:56:17.592Z,1008.63
2018-08-23T02:57:17.598Z,1008.61
2018-08-23T02:58:17.597Z,1008.65
2018-08-23T02:59:17.605Z,1008.59
2018-08-23T03:00:17.613Z,1008.59
2018-08-23T03:01:17.621Z,1008.59
2018-08-23T03:02:17.616Z,1008.59
2018-08-23T03:03:17.625Z,1008.63
2018-08-23T03:04:17.629Z,1008.60
2018-08-23T03:05:17.639Z,1008.61
2018-08-23T03:06:17.637Z,1008.62
2018-08-23T03:07:17.646Z,1008.61
2018-08-23T03:08:17.651Z,1008.59
2018-08-23T03:09:17.656Z,1008.55
2018-08-23T03:10:17.656Z,1008.58
2018-08-23T03:11:17.711Z,1008.57
2018-08-23T03:12:17.662Z,1008.56
2018-08-23T03:13:17.670Z,1008.55
2018-08-23T03:14:17.678Z,1008.53
2018-08-23T03:15:17.674Z,1008.52
2018-08-23T03:16:17.714Z,1008.51
2018-08-23T03:17:17.685Z,1008.50
2018-08-23T03:18:17.689Z,1008.48
2018-08-23T03:19:17.706Z,1008.48
2018-08-23T03:20:17.695Z,1008.46
2018-08-23T03:21:17.706Z,1008.45
2018-08-23T03:22:17.707Z,1008.46
2018-08-23T03:23:17.715Z,1008.43
2018-08-23T03:24:17.725Z,1008.40
2018-08-23T03:25:17.723Z,1008.38
2018-08-23T03:26:17.729Z,1008.36
2018-08-23T03:27:17.735Z,1008.36
2018-08-23T03:28:17.734Z,1008.37
2018-08-23T03:29:17.737Z,1008.38
2018-08-23T03:30:17.747Z,1008.44
2018-08-23T03:31:17.752Z,1008.42
2018-08-23T03:32:17.756Z,1008.47
2018-08-23T03:33:17.754Z,1008.47
2018-08-23T03:34:17.760Z,1008.48
2018-08-23T03:35:17.769Z,1008.44
2018-08-23T03:36:17.769Z,1008.47
2018-08-23T03:37:17.780Z,1008.51
2018-08-23T03:38:17.775Z,1008.42
2018-08-23T03:39:17.788Z,1008.45
2018-08-23T03:40:17.793Z,1008.48
2018-08-23T03:41:17.803Z,1008.46
2018-08-23T03:42:17.793Z,1008.46
2018-08-23T03:43:17.806Z,1008.46
2018-08-23T03:44:17.805Z,1008.45
2018-08-23T03:45:17.809Z,1008.41
2018-08-23T03:46:17.819Z,1008.42
2018-08-23T03:47:17.817Z,1008.43
2018-08-23T03:48:17.827Z,1008.45
2018-08-23T03:49:17.832Z,1008.43
2018-08-23T03:50:17.829Z,1008.45
2018-08-23T03:51:17.836Z,1008.44
2018-08-23T03:52:17.846Z,1008.46
2018-08-23T03:53:17.847Z,1008.42
2018-08-23T03:54:17.864Z,1008.45
2018-08-23T03:55:17.867Z,1008.43
2018-08-23T03:56:17.864Z,1008.43
2018-08-23T03:57:17.863Z,1008.41
2018-08-23T03:58:17.873Z,1008.41
2018-08-23T03:59:17.868Z,1008.44
2018-08-23T04:00:17.881Z,1008.41
2018-08-23T04:01:17.880Z,1008.42
2018-08-23T04:02:17.888Z,1008.39
2018-08-23T04:03:17.893Z,1008.38
2018-08-23T04:04:17.892Z,1008.38
2018-08-23T04:05:17.904Z,1008.33
2018-08-23T04:06:17.906Z,1008.34
2018-08-23T04:07:17.901Z,1008.37
2018-08-23T04:08:17.913Z,1008.39
2018-08-23T04:09:17.917Z,1008.36
2018-08-23T04:10:17.917Z,1008.37
2018-08-23T04:11:17.928Z,1008.33
2018-08-23T04:12:17.928Z,1008.30
2018-08-23T04:13:17.934Z,1008.32
2018-08-23T04:14:17.933Z,1008.37
2018-08-23T04:15:17.966Z,1008.33
2018-08-23T04:16:17.953Z,1008.33
2018-08-23T04:17:17.955Z,1008.29
2018-08-23T04:18:17.962Z,1008.27
2018-08-23T04:19:17.958Z,1008.32
2018-08-23T04:20:17.960Z,1008.32
2018-08-23T04:21:17.968Z,1008.31
2018-08-23T04:22:17.963Z,1008.31
2018-08-23T04:23:17.974Z,1008.32
2018-08-23T04:24:17.984Z,1008.31
2018-08-23T04:25:17.981Z,1008.33
2018-08-23T04:26:17.992Z,1008.34
2018-08-23T04:27:17.993Z,1008.35
2018-08-23T04:28:17.995Z,1008.32
2018-08-23T04:29:18.037Z,1008.35
2018-08-23T04:30:18.009Z,1008.35
2018-08-23T04:31:18.013Z,1008.35
2018-08-23T04:32:18.015Z,1008.32
2018-08-23T04:33:18.020Z,1008.34
2018-08-23T04:34:18.019Z,1008.36
2018-08-23T04:35:18.030Z,1008.36
2018-08-23T04:36:18.030Z,1008.36
2018-08-23T04:37:18.031Z,1008.35
2018-08-23T04:38:18.055Z,1008.30
2018-08-23T04:39:18.042Z,1008.33
2018-08-23T04:40:18.056Z,1008.29
2018-08-23T04:41:18.061Z,1008.28
2018-08-23T04:42:18.060Z,1008.31
2018-08-23T04:43:18.130Z,1008.30
2018-08-23T04:44:18.061Z,1008.29
2018-08-23T04:45:18.072Z,1008.29
2018-08-23T04:46:18.070Z,1008.29
2018-08-23T04:47:18.083Z,1008.29
2018-08-23T04:48:18.081Z,1008.26
2018-08-23T04:49:18.084Z,1008.26
2018-08-23T04:50:18.093Z,1008.23
2018-08-23T04:51:18.095Z,1008.24
2018-08-23T04:52:18.117Z,1008.24
2018-08-23T04:53:18.102Z,1008.24
2018-08-23T04:54:18.104Z,1008.23
2018-08-23T04:55:18.110Z,1008.21
2018-08-23T04:56:18.116Z,1008.20
2018-08-23T04:57:18.120Z,1008.22
2018-08-23T04:58:18.128Z,1008.21
2018-08-23T04:59:18.127Z,1008.23
2018-08-23T05:00:18.130Z,1008.22
2018-08-23T05:01:18.140Z,1008.17
2018-08-23T05:02:18.139Z,1008.18
2018-08-23T05:03:18.198Z,1008.15
2018-08-23T05:04:18.154Z,1008.18
2018-08-23T05:05:18.152Z,1008.16
2018-08-23T05:06:18.186Z,1008.16
2018-08-23T05:07:18.168Z,1008.14
2018-08-23T05:08:18.167Z,1008.13
2018-08-23T05:09:18.175Z,1008.19
2018-08-23T05:10:18.180Z,1008.15
2018-08-23T05:11:18.180Z,1008.11
2018-08-23T05:12:18.190Z,1008.15
2018-08-23T05:13:18.194Z,1008.10
2018-08-23T05:14:18.195Z,1008.10
2018-08-23T05:15:18.199Z,1008.11
2018-08-23T05:16:18.203Z,1008.11
2018-08-23T05:17:18.212Z,1008.11
2018-08-23T05:18:18.212Z,1008.11
2018-08-23T05:19:18.215Z,1008.11
2018-08-23T05:20:18.223Z,1008.14
2018-08-23T05:21:18.224Z,1008.16
2018-08-23T05:22:18.237Z,1008.16
2018-08-23T05:23:18.261Z,1008.15
2018-08-23T05:24:18.245Z,1008.17
2018-08-23T05:25:18.246Z,1008.14
2018-08-23T05:26:18.250Z,1008.16
2018-08-23T05:27:18.252Z,1008.18
2018-08-23T05:28:18.254Z,1008.14
2018-08-23T05:29:18.263Z,1008.18
2018-08-23T05:30:18.267Z,1008.15
2018-08-23T05:31:18.272Z,1008.19
2018-08-23T05:32:18.279Z,1008.21
2018-08-23T05:33:18.287Z,1008.17
2018-08-23T05:34:18.293Z,1008.12
2018-08-23T05:35:18.291Z,1008.14
2018-08-23T05:36:18.302Z,1008.12
2018-08-23T05:37:18.313Z,1008.12
2018-08-23T05:38:18.303Z,1008.14
2018-08-23T05:39:18.325Z,1008.11
2018-08-23T05:40:18.313Z,1008.12
2018-08-23T05:41:18.323Z,1008.15
2018-08-23T05:42:18.328Z,1008.13
2018-08-23T05:43:18.333Z,1008.11
2018-08-23T05:44:18.342Z,1008.12
2018-08-23T05:45:18.341Z,1008.10
2018-08-23T05:46:18.350Z,1008.11
2018-08-23T05:47:18.354Z,1008.08
2018-08-23T05:48:18.359Z,1008.11
2018-08-23T05:49:18.368Z,1008.12
2018-08-23T05:50:18.367Z,1008.11
2018-08-23T05:51:18.381Z,1008.09
2018-08-23T05:52:18.379Z,1008.10
2018-08-23T05:53:18.383Z,1008.08
2018-08-23T05:54:18.397Z,1008.12
2018-08-23T05:55:18.405Z,1008.10
2018-08-23T05:56:18.467Z,1008.11
2018-08-23T05:57:18.407Z,1008.15
2018-08-23T05:58:18.417Z,1008.14
2018-08-23T05:59:18.422Z,1008.15
2018-08-23T06:00:18.426Z,1008.09
2018-08-23T06:01:18.436Z,1008.12
2018-08-23T06:02:18.460Z,1008.11
2018-08-23T06:03:18.450Z,1008.09
2018-08-23T06:04:18.463Z,1008.12
2018-08-23T06:05:18.462Z,1008.18
2018-08-23T06:06:18.466Z,1008.12
2018-08-23T06:07:18.476Z,1008.22
2018-08-23T06:08:18.524Z,1008.25
2018-08-23T06:09:18.475Z,1008.27
2018-08-23T06:10:18.492Z,1008.30
2018-08-23T06:11:18.490Z,1008.25
2018-08-23T06:12:18.505Z,1008.27
2018-08-23T06:13:18.511Z,1008.30
2018-08-23T06:14:18.584Z,1008.29
2018-08-23T06:15:18.543Z,1008.31
2018-08-23T06:16:18.522Z,1008.29
2018-08-23T06:17:18.534Z,1008.33
2018-08-23T06:18:18.548Z,1008.36
2018-08-23T06:19:18.548Z,1008.37
2018-08-23T06:20:18.567Z,1008.34
2018-08-23T06:21:18.565Z,1008.38
2018-08-23T06:22:18.568Z,1008.37
2018-08-23T06:23:18.582Z,1008.42
2018-08-23T06:24:18.585Z,1008.41
2018-08-23T06:25:18.595Z,1008.34
2018-08-23T06:26:18.605Z,1008.33
2018-08-23T06:27:18.663Z,1008.37
2018-08-23T06:28:18.623Z,1008.30
2018-08-23T06:29:18.679Z,1008.28
2018-08-23T06:30:18.664Z,1008.29
2018-08-23T06:31:18.648Z,1008.29
2018-08-23T06:32:18.654Z,1008.30
2018-08-23T06:33:18.721Z,1008.34
2018-08-23T06:34:18.679Z,1008.36
2018-08-23T06:35:18.690Z,1008.38
2018-08-23T06:36:18.694Z,1008.34
2018-08-23T06:37:18.701Z,1008.37
2018-08-23T06:38:18.719Z,1008.37
2018-08-23T06:39:18.721Z,1008.38
2018-08-23T06:40:18.722Z,1008.35
2018-08-23T06:41:18.739Z,1008.37
2018-08-23T06:42:18.747Z,1008.39
2018-08-23T06:43:18.749Z,1008.41
2018-08-23T06:44:18.767Z,1008.43
2018-08-23T06:45:18.771Z,1008.47
2018-08-23T06:46:18.781Z,1008.56
2018-08-23T06:47:18.793Z,1008.58
2018-08-23T06:48:18.796Z,1008.59
2018-08-23T06:49:18.819Z,1008.59
2018-08-23T06:50:18.818Z,1008.64
2018-08-23T06:51:18.874Z,1008.61
2018-08-23T06:52:18.843Z,1008.63
2018-08-23T06:53:18.849Z,1008.72
2018-08-23T06:54:18.854Z,1008.72
2018-08-23T06:55:18.868Z,1008.72
2018-08-23T06:56:19.593Z,1008.72
2018-08-23T06:57:18.887Z,1008.77
2018-08-23T06:58:18.897Z,1008.81
2018-08-23T06:59:18.904Z,1008.82
2018-08-23T07:00:18.917Z,1008.93
2018-08-23T07:01:18.927Z,1008.86
2018-08-23T07:02:18.940Z,1008.92
2018-08-23T07:03:18.955Z,1008.91
2018-08-23T07:04:18.958Z,1008.94
2018-08-23T07:05:19.017Z,1008.93
2018-08-23T07:06:18.982Z,1008.95
2018-08-23T07:07:18.999Z,1008.97
2018-08-23T07:08:19.011Z,1009.08
2018-08-23T07:09:19.022Z,1009.10
2018-08-23T07:10:19.027Z,1009.17
2018-08-23T07:11:19.045Z,1009.17
2018-08-23T07:12:19.046Z,1009.14
2018-08-23T07:13:19.059Z,1009.18
2018-08-23T07:14:19.080Z,1009.14
2018-08-23T07:15:19.084Z,1009.23
2018-08-23T07:16:19.112Z,1009.23
2018-08-23T07:17:19.249Z,1009.25
2018-08-23T07:18:19.132Z,1009.16
2018-08-23T07:19:19.145Z,1009.24
2018-08-23T07:20:19.154Z,1009.22
2018-08-23T07:21:19.170Z,1009.29
2018-08-23T07:22:19.181Z,1009.24
2018-08-23T07:23:20.135Z,1009.29
2018-08-23T07:24:19.270Z,1009.30
2018-08-23T07:25:19.226Z,1009.30
2018-08-23T07:26:19.263Z,1009.33
2018-08-23T07:27:19.256Z,1009.40
2018-08-23T07:28:19.272Z,1009.45
2018-08-23T07:29:19.279Z,1009.28
2018-08-23T07:30:19.339Z,1009.45
2018-08-23T07:31:19.312Z,1009.43
2018-08-23T07:32:19.332Z,1009.38
2018-08-23T07:33:19.339Z,1009.39
2018-08-23T07:34:19.354Z,1009.48
2018-08-23T07:35:19.378Z,1009.48
2018-08-23T07:36:19.391Z,1009.50
2018-08-23T07:37:19.407Z,1009.50
2018-08-23T07:38:19.414Z,1009.55
2018-08-23T07:39:19.475Z,1009.61
2018-08-23T07:40:19.450Z,1009.53
2018-08-23T07:41:19.465Z,1009.48
2018-08-23T07:42:19.483Z,1009.51
2018-08-23T07:43:19.505Z,1009.48
2018-08-23T07:44:19.509Z,1009.58
2018-08-23T07:45:19.533Z,1009.50
2018-08-23T07:46:19.545Z,1009.54
2018-08-23T07:47:19.564Z,1009.48
2018-08-23T07:48:19.589Z,1009.55
2018-08-23T07:49:19.644Z,1009.62
2018-08-23T07:50:19.617Z,1009.32
2018-08-23T07:51:19.648Z,1009.55
2018-08-23T07:52:19.646Z,1009.43
2018-08-23T07:53:19.843Z,1009.32
2018-08-23T07:54:19.687Z,1009.48
2018-08-23T07:55:19.697Z,1009.42
2018-08-23T07:56:19.719Z,1009.40
2018-08-23T07:57:19.742Z,1009.44
2018-08-23T07:58:19.753Z,1009.44
2018-08-23T07:59:19.778Z,1009.28
2018-08-23T08:00:19.795Z,1009.38
2018-08-23T08:01:19.807Z,1009.25
2018-08-23T08:02:19.825Z,1009.42
2018-08-23T08:03:19.849Z,1009.34
2018-08-23T08:04:19.868Z,1009.37
2018-08-23T08:05:19.878Z,1009.38
2018-08-23T08:06:19.903Z,1009.34
2018-08-23T08:07:19.923Z,1009.27
2018-08-23T08:08:19.953Z,1009.31
2018-08-23T08:09:19.958Z,1009.24
2018-08-23T08:10:19.968Z,1009.28
2018-08-23T08:11:19.987Z,1009.27
2018-08-23T08:12:20.010Z,1009.22
2018-08-23T08:13:20.024Z,1009.22
2018-08-23T08:14:20.050Z,1009.32
2018-08-23T08:15:20.235Z,1009.36
2018-08-23T08:16:20.084Z,1009.22
2018-08-23T08:17:20.106Z,1009.30
2018-08-23T08:18:20.129Z,1009.28
2018-08-23T08:19:20.144Z,1009.27
2018-08-23T08:20:20.156Z,1009.21
2018-08-23T08:21:20.182Z,1009.17
2018-08-23T08:22:20.192Z,1009.22
2018-08-23T08:23:20.225Z,1009.22
2018-08-23T08:24:20.239Z,1009.23
2018-08-23T08:25:20.251Z,1009.22
2018-08-23T08:26:20.278Z,1009.19
2018-08-23T08:27:20.382Z,1009.16
2018-08-23T08:28:20.314Z,1009.13
2018-08-23T08:29:20.337Z,1009.17
2018-08-23T08:30:20.354Z,1009.10
2018-08-23T08:31:20.371Z,1009.08
2018-08-23T08:32:20.396Z,1009.22
2018-08-23T08:33:20.523Z,1009.16
2018-08-23T08:34:20.429Z,1009.14
2018-08-23T08:35:20.449Z,1009.08
2018-08-23T08:36:20.468Z,1009.15
2018-08-23T08:37:20.484Z,1009.05
2018-08-23T08:38:20.507Z,1009.13
2018-08-23T08:39:20.525Z,1009.03
2018-08-23T08:40:20.551Z,1008.99
2018-08-23T08:41:20.572Z,1009.02
2018-08-23T08:42:20.584Z,1009.03
2018-08-23T08:43:20.607Z,1009.10
2018-08-23T08:44:20.625Z,1009.00
2018-08-23T08:45:20.652Z,1008.98
2018-08-23T08:46:20.678Z,1008.97
2018-08-23T08:47:20.688Z,1008.88
2018-08-23T08:48:20.710Z,1008.83
2018-08-23T08:49:20.727Z,1008.80
2018-08-23T08:50:20.797Z,1008.77
2018-08-23T08:51:20.772Z,1008.78
2018-08-23T08:52:20.833Z,1008.79
2018-08-23T08:53:20.808Z,1008.74
2018-08-23T08:54:20.828Z,1008.71
2018-08-23T08:55:20.849Z,1008.66
2018-08-23T08:56:20.875Z,1008.66
2018-08-23T08:57:21.010Z,1008.60
2018-08-23T08:58:20.911Z,1008.59
2018-08-23T08:59:20.930Z,1008.61
2018-08-23T09:00:20.953Z,1008.63
2018-08-23T09:01:20.976Z,1008.60
2018-08-23T09:02:20.992Z,1008.54
2018-08-23T09:03:21.017Z,1008.53
2018-08-23T09:04:21.041Z,1008.58
2018-08-23T09:05:21.056Z,1008.59
2018-08-23T09:06:21.079Z,1008.57
2018-08-23T09:07:21.106Z,1008.66
2018-08-23T09:08:21.119Z,1008.63
2018-08-23T09:09:21.142Z,1008.61
2018-08-23T09:10:21.162Z,1008.62
2018-08-23T09:11:21.179Z,1008.65
2018-08-23T09:12:21.207Z,1008.61
2018-08-23T09:13:21.221Z,1008.60
2018-08-23T09:14:21.250Z,1008.61
2018-08-23T09:15:21.271Z,1008.60
2018-08-23T09:16:21.283Z,1008.65
2018-08-23T09:17:21.316Z,1008.60
2018-08-23T09:18:21.331Z,1008.67
2018-08-23T09:19:21.350Z,1008.62
2018-08-23T09:20:21.412Z,1008.65
2018-08-23T09:21:21.396Z,1008.70
2018-08-23T09:22:21.416Z,1008.69
2018-08-23T09:23:21.440Z,1008.70
2018-08-23T09:24:21.454Z,1008.70
2018-08-23T09:25:21.537Z,1008.75
2018-08-23T09:26:21.509Z,1008.75
2018-08-23T09:27:21.605Z,1008.75
2018-08-23T09:28:21.543Z,1008.71
2018-08-23T09:29:21.565Z,1008.70
2018-08-23T09:30:21.590Z,1008.66
2018-08-23T09:31:21.609Z,1008.70
2018-08-23T09:32:21.631Z,1008.64
2018-08-23T09:33:21.650Z,1008.59
2018-08-23T09:34:21.669Z,1008.59
2018-08-23T09:35:21.693Z,1008.69
2018-08-23T09:36:21.711Z,1008.32
2018-08-23T09:37:21.732Z,1008.68
2018-08-23T09:38:21.759Z,1008.60
2018-08-23T09:39:21.774Z,1008.58
2018-08-23T09:40:21.799Z,1008.60
2018-08-23T09:41:21.816Z,1008.53
2018-08-23T09:42:21.838Z,1008.44
2018-08-23T09:43:21.859Z,1008.41
2018-08-23T09:44:21.887Z,1008.60
2018-08-23T09:45:21.906Z,1008.58
2018-08-23T09:46:21.921Z,1008.57
2018-08-23T09:47:21.948Z,1008.52
2018-08-23T09:48:21.973Z,1008.52
2018-08-23T09:49:21.990Z,1008.42
2018-08-23T09:50:22.004Z,1008.52
2018-08-23T09:51:22.029Z,1008.45
2018-08-23T09:52:22.104Z,1008.39
2018-08-23T09:53:22.070Z,1008.37
2018-08-23T09:54:22.097Z,1008.33
2018-08-23T09:55:22.114Z,1008.21
2018-08-23T09:56:22.130Z,1008.27
2018-08-23T09:57:22.158Z,1008.26
2018-08-23T09:58:22.177Z,1008.26
2018-08-23T09:59:22.198Z,1008.15
2018-08-23T10:00:22.218Z,1008.14
2018-08-23T10:01:22.248Z,1008.17
2018-08-23T10:02:22.263Z,1008.22
2018-08-23T10:03:22.282Z,1007.95
2018-08-23T10:04:22.422Z,1007.52
2018-08-23T10:05:22.325Z,1007.52
2018-08-23T10:06:22.344Z,1007.47
2018-08-23T10:07:22.362Z,1007.55
2018-08-23T10:08:22.390Z,1008.26
2018-08-23T10:09:22.404Z,1008.02
2018-08-23T10:10:22.433Z,1008.21
2018-08-23T10:11:22.492Z,1008.18
2018-08-23T10:12:22.463Z,1008.08
2018-08-23T10:13:22.486Z,1008.18
2018-08-23T10:14:22.510Z,1008.12
2018-08-23T10:15:22.531Z,1008.06
2018-08-23T10:16:22.540Z,1008.08
2018-08-23T10:17:22.566Z,1008.14
2018-08-23T10:18:22.579Z,1007.76
2018-08-23T10:19:22.601Z,1007.61
2018-08-23T10:20:23.169Z,1007.48
2018-08-23T10:21:22.643Z,1007.44
2018-08-23T10:22:22.665Z,1007.52
2018-08-23T10:23:22.674Z,1007.56
2018-08-23T10:24:22.693Z,1007.43
2018-08-23T10:25:22.725Z,1007.43
2018-08-23T10:26:22.791Z,1007.52
2018-08-23T10:27:22.757Z,1007.40
2018-08-23T10:28:22.770Z,1007.51
2018-08-23T10:29:22.791Z,1007.47
2018-08-23T10:30:22.802Z,1008.07
2018-08-23T10:31:22.824Z,1008.06
2018-08-23T10:32:22.958Z,1008.07
2018-08-23T10:33:22.851Z,1007.99
2018-08-23T10:34:22.872Z,1007.97
2018-08-23T10:35:22.888Z,1007.92
2018-08-23T10:36:22.905Z,1007.94
2018-08-23T10:37:22.927Z,1007.95
2018-08-23T10:38:22.939Z,1007.26
2018-08-23T10:39:22.957Z,1007.31
2018-08-23T10:40:22.971Z,1007.27
2018-08-23T10:41:22.985Z,1007.35
2018-08-23T10:42:23.004Z,1007.17
2018-08-23T10:43:23.022Z,1007.15
2018-08-23T10:44:23.063Z,1007.18
2018-08-23T10:45:23.059Z,1007.18
2018-08-23T10:46:23.071Z,1007.22
2018-08-23T10:47:23.089Z,1007.19
2018-08-23T10:48:23.114Z,1007.32
2018-08-23T10:49:23.126Z,1007.72
2018-08-23T10:50:23.140Z,1007.67
2018-08-23T10:51:23.144Z,1007.65
2018-08-23T10:52:23.170Z,1007.64
2018-08-23T10:53:23.183Z,1007.63
2018-08-23T10:54:23.197Z,1007.56
2018-08-23T10:55:23.215Z,1007.51
2018-08-23T10:56:23.232Z,1007.49
2018-08-23T10:57:23.247Z,1007.43
2018-08-23T10:58:23.289Z,1007.44
2018-08-23T10:59:23.279Z,1007.39
2018-08-23T11:00:23.293Z,1007.23
2018-08-23T11:01:23.307Z,1007.41
2018-08-23T11:02:23.320Z,1007.46
2018-08-23T11:03:23.339Z,1007.41
2018-08-23T11:04:23.355Z,1007.43
2018-08-23T11:05:23.372Z,1007.34
2018-08-23T11:06:23.388Z,1007.40
2018-08-23T11:07:23.400Z,1007.43
2018-08-23T11:08:23.420Z,1007.44
2018-08-23T11:09:23.435Z,1007.39
2018-08-23T11:10:23.455Z,1007.39
2018-08-23T11:11:23.478Z,1007.37
2018-08-23T11:12:23.490Z,1007.38
2018-08-23T11:13:23.505Z,1007.16
2018-08-23T11:14:23.594Z,1007.14
2018-08-23T11:15:23.543Z,1007.17
2018-08-23T11:16:23.559Z,1007.14
2018-08-23T11:17:23.572Z,1007.24
2018-08-23T11:18:23.592Z,1007.25
2018-08-23T11:19:23.605Z,1007.15
2018-08-23T11:20:23.623Z,1007.19
2018-08-23T11:21:23.642Z,1007.22
2018-08-23T11:22:23.658Z,1006.97
2018-08-23T11:23:23.671Z,1007.16
2018-08-23T11:24:23.695Z,1007.07
2018-08-23T11:25:23.713Z,1007.05
2018-08-23T11:26:23.731Z,1006.95
2018-08-23T11:27:23.736Z,1006.98
2018-08-23T11:28:23.753Z,1007.06
2018-08-23T11:29:23.793Z,1007.14
2018-08-23T11:30:23.787Z,1007.10
2018-08-23T11:31:23.804Z,1007.06
2018-08-23T11:32:23.837Z,1007.10
2018-08-23T11:33:23.843Z,1006.89
2018-08-23T11:34:23.852Z,1007.05
2018-08-23T11:35:23.869Z,1006.88
2018-08-23T11:36:23.890Z,1006.88
2018-08-23T11:37:23.899Z,1006.95
2018-08-23T11:38:23.919Z,1006.95
2018-08-23T11:39:23.935Z,1007.05
2018-08-23T11:40:23.949Z,1007.03
2018-08-23T11:41:23.968Z,1007.12
2018-08-23T11:42:23.978Z,1007.17
2018-08-23T11:43:23.994Z,1007.10
2018-08-23T11:44:24.025Z,1007.11
2018-08-23T11:45:24.027Z,1007.10
2018-08-23T11:46:24.044Z,1007.13
2018-08-23T11:47:24.050Z,1007.03
2018-08-23T11:48:24.074Z,1007.01
2018-08-23T11:49:24.094Z,1006.95
2018-08-23T11:50:24.112Z,1006.91
2018-08-23T11:51:24.116Z,1006.92
2018-08-23T11:52:24.157Z,1006.88
2018-08-23T11:53:24.332Z,1006.89
2018-08-23T11:54:24.167Z,1006.77
2018-08-23T11:55:24.175Z,1006.79
2018-08-23T11:56:24.208Z,1006.80
2018-08-23T11:57:24.208Z,1006.77
2018-08-23T11:58:24.222Z,1006.78
2018-08-23T11:59:24.238Z,1006.67
2018-08-23T12:00:24.259Z,1006.73
2018-08-23T12:01:24.277Z,1006.67
2018-08-23T12:02:24.281Z,1006.70
2018-08-23T12:03:24.303Z,1006.71
2018-08-23T12:04:24.358Z,1006.72
2018-08-23T12:05:24.329Z,1006.75